ADDS METAR Data INFO
IDs: Format: Raw Decoded Include TAF

Data at: 2220 UTC 24 Jun 2018

KBZN 242156Z 05007KT 10SM FEW060 21/11 A3015 RMK AO2 SLP187 T02060106
KBZN 242056Z 00000KT 10SM OVC060 19/11 A3017 RMK AO2 SLP192 T01890106 55004
KBZN 241956Z 32008KT 10SM OVC050 18/11 A3017 RMK AO2 SLP193 T01830106
KBZN 241856Z VRB03KT 10SM SCT040 OVC049 18/09 A3017 RMK AO2 SLP193 T01830089
KBZN 241756Z 00000KT 10SM FEW036 OVC045 17/08 A3018 RMK AO2 SLP199 T01670083 10178 20111 50002
KBZN 241656Z VRB03KT 10SM SCT032 OVC045 17/09 A3018 RMK AO2 SLP199 T01670089
KBZN 241556Z 00000KT 10SM OVC043 15/08 A3018 RMK AO2 SLP199 T01500078
KBZN 241456Z 00000KT 10SM OVC042 14/09 A3017 RMK AO2 SLP197 T01440089 51007
KBZN 241356Z 15004KT 10SM OVC034 13/08 A3017 RMK AO2 SLP195 T01330078
KBZN 241256Z 14003KT 10SM OVC040 12/09 A3016 RMK AO2 SLP193 T01220089
KBZN 241156Z 13004KT 10SM OVC036 11/09 A3015 RMK AO2 SLP190 70020 T01110089 10122 20106 53010
KBZN 241056Z 14005KT 10SM OVC039 11/09 A3014 RMK AO2 SLP189 T01110089
KBZN 240956Z AUTO 20004KT 10SM BKN050 BKN075 11/08 A3012 RMK AO2 SLP190 T01060078
KBZN 240856Z AUTO 20004KT 10SM BKN039 OVC047 12/07 A3012 RMK AO2 SLP181 T01170072 50004
KBZN 240756Z AUTO 00000KT 10SM OVC046 12/07 A3012 RMK AO2 SLP185 T01170072
KBZN 240656Z 24003KT 10SM SCT039 BKN047 OVC085 12/07 A3011 RMK AO2 SLP177 T01220072 402060100
KBZN 240556Z 14005KT 10SM BKN035 BKN042 OVC085 12/08 A3010 RMK AO2 SLP169 T01170083 10172 20111 51015
KBZN 240456Z 27007KT 10SM BKN055 OVC070 13/07 A3009 RMK AO2 SLP166 T01280072
KBZN 240356Z 27008KT 10SM OVC045 14/07 A3009 RMK AO2 SLP163 T01390067
KBZN 240256Z 28011KT 10SM BKN047 OVC080 14/07 A3005 RMK AO2 SLP153 T01440072 53011
KBZN 240156Z 29010KT 10SM SCT050 OVC075 15/07 A3004 RMK AO2 SLP151 T01500072
KBZN 240056Z 29009G17KT 10SM FEW039 OVC060 16/07 A3002 RMK AO2 SLP146 T01610072
KBZN 232356Z 25009KT 10SM FEW055 BKN070 16/08 A3002 RMK AO2 SLP145 60020 T01610078 10200 20106 56003
KBZN 232256Z 18004KT 10SM FEW034 BKN050 OVC070 14/10 A3002 RMK AO2 RAE2159 TSE09 SLP148 P0000 T01390100
KBZN 232215Z 13004KT 10SM BKN060 OVC080 13/09 A3002 RMK AO2 RAE2159 TSE09 P0000 T01330089
KBZN 232156Z 13005KT 10SM -TSRA FEW036 BKN055 OVC080 11/09 A3002 RMK AO2 RAB22 TSB54 SLP152 P0016 T01110089
KBZN 232139Z 05004KT 5SM +RA FEW019 BKN042 OVC050 11/07 A3003 RMK AO2 RAB22 P0015 T01060072
KBZN 232132Z 35008KT 1 3/4SM +RA SCT024 SCT033 BKN044 11/07 A3003 RMK AO2 RAB22 P0010 T01110072
KBZN 232056Z 00000KT 10SM FEW028 SCT033 OVC060 14/09 A3003 RMK AO2 RAE23 SLP148 P0002 60004 T01440094 51027
KBZN 231956Z 32007KT 5SM -RA OVC055 12/09 A3002 RMK AO2 PK WND 33027/1910 LTG DSNT SE RAB31E40B48 SLP149 P0002 T01220089
KBZN 231946Z 33011KT 10SM BKN055 OVC075 13/08 A3002 RMK AO2 PK WND 33027/1910 RAB31E40 P0000 T01330083
KBZN 231931Z 33014G21KT 10SM VCTS -RA SCT060 BKN075 OVC090 13/08 A3001 RMK AO2 PK WND 33027/1910 LTG DSNT SE RAB31 P0000 T01330078
KBZN 231856Z 35020G26KT 10SM BKN060 BKN075 BKN120 15/09 A2996 RMK AO2 PK WND 36028/1845 WSHFT 1819 LTG DSNT S SLP126 T01500089
KBZN 231846Z 36024G28KT 10SM VCTS SCT060 SCT075 BKN110 17/09 A2995 RMK AO2 PK WND 36028/1845 WSHFT 1819 LTG DSNT SW T01670089
KBZN 231839Z 35019G26KT 10SM FEW060 BKN110 17/09 A2995 RMK AO2 PK WND 35026/1837 WSHFT 1819 LTG DSNT SW T01720094
KBZN 231756Z 29010KT 10SM SCT050 19/08 A2994 RMK AO2 SLP104 T01890083 10206 20100 56012
KBZN 231656Z 33005KT 10SM SCT049 BKN100 18/07 A2994 RMK AO2 LTG DSNT N SLP108 T01830072
KBZN 231556Z 00000KT 10SM CLR 17/09 A2996 RMK AO2 SLP119 T01720089
KBZN 231456Z 15004KT 10SM FEW090 16/11 A2997 RMK AO2 SLP121 T01560106 51004
KBZN 231356Z 13004KT 10SM SCT085 13/11 A2997 RMK AO2 SLP115 T01330106
KBZN 231256Z 13003KT 10SM FEW080 12/11 A2997 RMK AO2 SLP116 T01170111
KBZN 231156Z 28003KT 10SM BKN075 11/09 A2996 RMK AO2 SLP116 60002 70002 T01060094 10167 20106 55006
KBZN 231056Z 24003KT 10SM CLR 11/11 A2995 RMK AO2 SLP114 T01110106